createdAt,value
2018-07-10T00:00:23.700Z,19.24
2018-07-10T00:00:54.932Z,19.24
2018-07-10T00:01:26.163Z,19.23
2018-07-10T00:01:57.419Z,19.22
2018-07-10T00:02:28.614Z,19.20
2018-07-10T00:02:59.801Z,19.20
2018-07-10T00:03:30.992Z,19.21
2018-07-10T00:04:02.169Z,19.22
2018-07-10T00:04:33.448Z,19.23
2018-07-10T00:05:04.632Z,19.25
2018-07-10T00:05:35.866Z,19.26
2018-07-10T00:06:07.112Z,19.27
2018-07-10T00:06:38.297Z,19.27
2018-07-10T00:07:09.471Z,19.28
2018-07-10T00:07:40.650Z,19.28
2018-07-10T00:08:11.839Z,19.27
2018-07-10T00:08:43.101Z,19.25
2018-07-10T00:09:14.272Z,19.21
2018-07-10T00:09:45.468Z,19.19
2018-07-10T00:10:16.652Z,19.17
2018-07-10T00:10:47.892Z,19.16
2018-07-10T00:11:19.134Z,19.16
2018-07-10T00:11:50.375Z,19.17
2018-07-10T00:12:21.625Z,19.16
2018-07-10T00:12:52.789Z,19.16
2018-07-10T00:13:24.021Z,19.16
2018-07-10T00:13:55.196Z,19.14
2018-07-10T00:14:26.368Z,19.14
2018-07-10T00:14:57.540Z,19.15
2018-07-10T00:15:28.720Z,19.13
2018-07-10T00:15:59.905Z,19.16
2018-07-10T00:16:31.083Z,19.17
2018-07-10T00:17:02.272Z,19.20
2018-07-10T00:17:33.512Z,19.22
2018-07-10T00:18:04.707Z,19.23
2018-07-10T00:18:35.979Z,19.19
2018-07-10T00:19:07.168Z,19.21
2018-07-10T00:19:38.348Z,19.21
2018-07-10T00:20:09.525Z,19.23
2018-07-10T00:20:40.762Z,19.08
2018-07-10T00:21:11.949Z,19.27
2018-07-10T00:21:43.130Z,19.27
2018-07-10T00:22:14.311Z,19.26
2018-07-10T00:22:45.589Z,19.23
2018-07-10T00:23:16.765Z,19.21
2018-07-10T00:23:47.940Z,19.17
2018-07-10T00:24:19.164Z,19.14
2018-07-10T00:24:50.396Z,19.10
2018-07-10T00:25:21.607Z,19.09
2018-07-10T00:25:52.796Z,19.07
2018-07-10T00:26:23.969Z,19.06
2018-07-10T00:26:55.147Z,19.04
2018-07-10T00:27:26.334Z,19.00
2018-07-10T00:27:57.561Z,18.96
2018-07-10T00:28:28.741Z,18.87
2018-07-10T00:28:59.966Z,18.86
2018-07-10T00:29:31.161Z,18.82
2018-07-10T00:30:02.393Z,18.78
2018-07-10T00:30:33.589Z,18.72
2018-07-10T00:31:04.756Z,18.65
2018-07-10T00:31:35.991Z,18.63
2018-07-10T00:32:07.233Z,18.61
2018-07-10T00:32:38.422Z,18.61
2018-07-10T00:33:09.629Z,18.61
2018-07-10T00:33:40.797Z,18.59
2018-07-10T00:34:12.006Z,18.60
2018-07-10T00:34:43.184Z,18.62
2018-07-10T00:35:14.366Z,18.64
2018-07-10T00:35:45.599Z,18.65
2018-07-10T00:36:16.786Z,18.64
2018-07-10T00:36:47.962Z,18.63
2018-07-10T00:37:19.188Z,18.60
2018-07-10T00:37:50.408Z,18.56
2018-07-10T00:38:21.600Z,18.55
2018-07-10T00:38:52.765Z,18.55
2018-07-10T00:39:23.980Z,18.57
2018-07-10T00:39:55.156Z,18.59
2018-07-10T00:40:26.332Z,18.59
2018-07-10T00:40:57.508Z,18.60
2018-07-10T00:41:28.687Z,18.63
2018-07-10T00:41:59.868Z,18.66
2018-07-10T00:42:33.167Z,18.67
2018-07-10T00:43:04.359Z,18.72
2018-07-10T00:43:35.617Z,18.72
2018-07-10T00:44:06.926Z,18.72
2018-07-10T00:44:38.100Z,18.70
2018-07-10T00:45:09.277Z,18.71
2018-07-10T00:45:40.464Z,18.68
2018-07-10T00:46:11.637Z,18.68
2018-07-10T00:46:42.809Z,18.65
2018-07-10T00:47:14.033Z,18.65
2018-07-10T00:47:45.220Z,18.67
2018-07-10T00:48:17.132Z,18.67
2018-07-10T00:48:49.148Z,18.65
2018-07-10T00:49:20.330Z,18.64
2018-07-10T00:49:51.561Z,18.65
2018-07-10T00:50:22.768Z,18.68
2018-07-10T00:50:53.944Z,18.69
2018-07-10T00:51:25.152Z,18.69
2018-07-10T00:51:56.328Z,18.69
2018-07-10T00:52:27.504Z,18.69
2018-07-10T00:52:58.700Z,18.69
2018-07-10T00:53:30.878Z,18.69
2018-07-10T00:54:02.104Z,18.69
2018-07-10T00:54:33.282Z,18.68
2018-07-10T00:55:04.452Z,18.68
2018-07-10T00:55:35.629Z,18.65
2018-07-10T00:56:06.878Z,18.64
2018-07-10T00:56:38.117Z,18.63
2018-07-10T00:57:09.354Z,18.63
2018-07-10T00:57:40.590Z,18.63
2018-07-10T00:58:11.788Z,18.60
2018-07-10T00:58:42.967Z,18.58
2018-07-10T00:59:14.189Z,18.53
2018-07-10T00:59:45.384Z,18.53
2018-07-10T01:00:16.553Z,18.48
2018-07-10T01:00:48.395Z,18.42
2018-07-10T01:01:19.583Z,18.40
2018-07-10T01:01:50.762Z,18.39
2018-07-10T01:02:21.956Z,18.41
2018-07-10T01:02:53.197Z,18.41
2018-07-10T01:03:24.392Z,18.39
2018-07-10T01:03:55.575Z,18.35
2018-07-10T01:04:26.869Z,18.35
2018-07-10T01:04:58.708Z,18.35
2018-07-10T01:05:29.881Z,18.36
2018-07-10T01:06:01.062Z,18.37
2018-07-10T01:06:32.238Z,18.37
2018-07-10T01:07:03.476Z,18.40
2018-07-10T01:07:34.665Z,18.41
2018-07-10T01:08:05.860Z,18.43
2018-07-10T01:08:37.033Z,18.41
2018-07-10T01:09:08.220Z,18.40
2018-07-10T01:09:39.483Z,18.44
2018-07-10T01:10:10.729Z,18.44
2018-07-10T01:10:41.916Z,18.46
2018-07-10T01:11:13.088Z,18.47
2018-07-10T01:11:44.265Z,18.46
2018-07-10T01:12:15.484Z,18.47
2018-07-10T01:12:46.709Z,18.42
2018-07-10T01:13:17.912Z,18.42
2018-07-10T01:13:49.088Z,18.43
2018-07-10T01:14:20.323Z,18.41
2018-07-10T01:14:51.604Z,18.42
2018-07-10T01:15:22.831Z,18.42
2018-07-10T01:15:54.018Z,18.42
2018-07-10T01:16:25.210Z,18.40
2018-07-10T01:16:56.380Z,18.38
2018-07-10T01:17:27.666Z,18.37
2018-07-10T01:17:58.852Z,18.37
2018-07-10T01:18:30.033Z,18.39
2018-07-10T01:19:01.271Z,18.39
2018-07-10T01:19:32.421Z,18.41
2018-07-10T01:20:03.610Z,18.42
2018-07-10T01:20:34.827Z,18.44
2018-07-10T01:21:06.017Z,18.42
2018-07-10T01:21:37.249Z,18.42
2018-07-10T01:22:08.484Z,18.42
2018-07-10T01:22:39.676Z,18.41
2018-07-10T01:23:10.921Z,18.41
2018-07-10T01:23:42.105Z,18.40
2018-07-10T01:24:13.284Z,18.40
2018-07-10T01:24:44.454Z,18.42
2018-07-10T01:25:15.640Z,18.43
2018-07-10T01:25:46.879Z,18.47
2018-07-10T01:26:18.053Z,18.46
2018-07-10T01:26:49.285Z,18.48
2018-07-10T01:27:20.529Z,18.53
2018-07-10T01:27:51.726Z,18.56
2018-07-10T01:28:22.907Z,18.59
2018-07-10T01:28:54.089Z,18.58
2018-07-10T01:29:25.267Z,18.58
2018-07-10T01:29:56.446Z,18.56
2018-07-10T01:30:27.664Z,18.54
2018-07-10T01:30:58.896Z,18.53
2018-07-10T01:31:30.091Z,18.50
2018-07-10T01:32:01.277Z,18.50
2018-07-10T01:32:32.453Z,18.52
2018-07-10T01:33:03.681Z,18.53
2018-07-10T01:33:34.966Z,18.55
2018-07-10T01:34:06.164Z,18.56
2018-07-10T01:34:37.379Z,18.56
2018-07-10T01:35:08.576Z,18.53
2018-07-10T01:35:39.857Z,18.49
2018-07-10T01:36:11.041Z,18.46
2018-07-10T01:36:42.277Z,18.45
2018-07-10T01:37:13.470Z,18.45
2018-07-10T01:37:44.662Z,18.43
2018-07-10T01:38:15.843Z,18.42
2018-07-10T01:38:47.013Z,18.43
2018-07-10T01:39:18.202Z,18.46
2018-07-10T01:39:49.390Z,18.49
2018-07-10T01:40:20.653Z,18.49
2018-07-10T01:40:51.831Z,18.46
2018-07-10T01:41:23.057Z,18.44
2018-07-10T01:41:54.254Z,18.47
2018-07-10T01:42:25.505Z,18.47
2018-07-10T01:42:56.801Z,18.51
2018-07-10T01:43:28.041Z,18.55
2018-07-10T01:43:59.278Z,18.56
2018-07-10T01:44:30.473Z,18.55
2018-07-10T01:45:01.713Z,18.55
2018-07-10T01:45:32.949Z,18.56
2018-07-10T01:46:04.133Z,18.56
2018-07-10T01:46:35.384Z,18.58
2018-07-10T01:47:06.620Z,18.60
2018-07-10T01:47:37.858Z,18.61
2018-07-10T01:48:09.141Z,18.64
2018-07-10T01:48:40.324Z,18.66
2018-07-10T01:49:11.500Z,18.66
2018-07-10T01:49:42.676Z,18.67
2018-07-10T01:50:13.903Z,18.68
2018-07-10T01:50:45.078Z,18.66
2018-07-10T01:51:16.267Z,18.68
2018-07-10T01:51:47.506Z,18.69
2018-07-10T01:52:18.703Z,18.68
2018-07-10T01:52:49.883Z,18.68
2018-07-10T01:53:21.056Z,18.68
2018-07-10T01:53:52.259Z,18.70
2018-07-10T01:54:23.493Z,18.68
2018-07-10T01:54:54.725Z,18.66
2018-07-10T01:55:26.001Z,18.66
2018-07-10T01:55:57.192Z,18.68
2018-07-10T01:56:28.382Z,18.64
2018-07-10T01:56:59.593Z,18.60
2018-07-10T01:57:30.826Z,18.60
2018-07-10T01:58:02.061Z,18.58
2018-07-10T01:58:33.262Z,18.54
2018-07-10T01:59:04.493Z,18.53
2018-07-10T01:59:35.675Z,18.53
2018-07-10T02:00:06.840Z,18.53
2018-07-10T02:00:38.117Z,18.53
2018-07-10T02:01:09.405Z,18.55
2018-07-10T02:01:40.588Z,18.55
2018-07-10T02:02:11.764Z,18.54
2018-07-10T02:02:43.664Z,18.55
2018-07-10T02:03:14.852Z,18.57
2018-07-10T02:03:46.077Z,18.60
2018-07-10T02:04:17.303Z,18.60
2018-07-10T02:04:48.757Z,18.62
2018-07-10T02:05:19.951Z,18.65
2018-07-10T02:05:51.194Z,18.66
2018-07-10T02:06:22.382Z,18.66
2018-07-10T02:06:53.600Z,18.67
2018-07-10T02:07:24.775Z,18.68
2018-07-10T02:07:55.944Z,18.67
2018-07-10T02:08:27.128Z,18.67
2018-07-10T02:08:58.353Z,18.69
2018-07-10T02:09:29.529Z,18.67
2018-07-10T02:10:00.712Z,18.66
2018-07-10T02:10:31.883Z,18.64
2018-07-10T02:11:03.099Z,18.66
2018-07-10T02:11:34.274Z,18.64
2018-07-10T02:12:05.444Z,18.65
2018-07-10T02:12:36.672Z,18.66
2018-07-10T02:13:07.905Z,18.64
2018-07-10T02:13:39.096Z,18.66
2018-07-10T02:14:10.348Z,18.48
2018-07-10T02:14:41.487Z,18.65
2018-07-10T02:15:12.713Z,18.65
2018-07-10T02:15:43.897Z,18.66
2018-07-10T02:16:15.179Z,18.66
2018-07-10T02:16:46.442Z,18.68
2018-07-10T02:17:17.680Z,18.65
2018-07-10T02:17:48.912Z,18.65
2018-07-10T02:18:20.097Z,18.66
2018-07-10T02:18:51.320Z,18.65
2018-07-10T02:19:22.549Z,18.64
2018-07-10T02:19:53.745Z,18.65
2018-07-10T02:20:24.986Z,18.62
2018-07-10T02:20:56.184Z,18.57
2018-07-10T02:21:27.396Z,18.52
2018-07-10T02:21:58.572Z,18.52
2018-07-10T02:22:29.744Z,18.50
2018-07-10T02:23:01.009Z,18.47
2018-07-10T02:23:32.200Z,18.47
2018-07-10T02:24:03.373Z,18.48
2018-07-10T02:24:34.604Z,18.47
2018-07-10T02:25:05.788Z,18.47
2018-07-10T02:25:36.965Z,18.51
2018-07-10T02:26:08.262Z,18.49
2018-07-10T02:26:39.448Z,18.45
2018-07-10T02:27:10.616Z,18.41
2018-07-10T02:27:41.850Z,18.37
2018-07-10T02:28:13.025Z,18.34
2018-07-10T02:28:44.196Z,18.30
2018-07-10T02:29:15.367Z,18.27
2018-07-10T02:29:46.598Z,18.21
2018-07-10T02:30:17.785Z,18.19
2018-07-10T02:30:48.954Z,18.17
2018-07-10T02:31:20.221Z,18.15
2018-07-10T02:31:51.458Z,18.12
2018-07-10T02:32:22.712Z,18.14
2018-07-10T02:32:54.488Z,18.17
2018-07-10T02:33:25.671Z,18.20
2018-07-10T02:33:56.876Z,18.22
2018-07-10T02:34:28.066Z,18.22
2018-07-10T02:34:59.270Z,18.21
2018-07-10T02:35:30.493Z,18.21
2018-07-10T02:36:01.673Z,18.20
2018-07-10T02:36:32.850Z,18.19
2018-07-10T02:37:04.091Z,18.18
2018-07-10T02:37:35.339Z,18.17
2018-07-10T02:38:06.581Z,18.13
2018-07-10T02:38:37.761Z,18.09
2018-07-10T02:39:08.976Z,18.09
2018-07-10T02:39:40.162Z,18.11
2018-07-10T02:40:11.335Z,18.16
2018-07-10T02:40:42.510Z,18.18
2018-07-10T02:41:13.989Z,18.21
2018-07-10T02:41:45.176Z,18.24
2018-07-10T02:42:16.969Z,18.25
2018-07-10T02:42:48.161Z,18.28
2018-07-10T02:43:19.384Z,18.30
2018-07-10T02:43:50.553Z,18.31
2018-07-10T02:44:21.744Z,18.31
2018-07-10T02:44:52.933Z,18.32
2018-07-10T02:45:24.116Z,18.33
2018-07-10T02:45:55.375Z,18.32
2018-07-10T02:46:26.564Z,18.34
2018-07-10T02:46:57.739Z,18.35
2018-07-10T02:47:28.912Z,18.39
2018-07-10T02:48:00.085Z,18.39
2018-07-10T02:48:31.307Z,18.33
2018-07-10T02:49:02.477Z,18.33
2018-07-10T02:49:33.737Z,18.34
2018-07-10T02:50:04.951Z,18.34
2018-07-10T02:50:36.173Z,18.34
2018-07-10T02:51:07.437Z,18.34
2018-07-10T02:51:38.631Z,18.32
2018-07-10T02:52:09.866Z,18.33
2018-07-10T02:52:41.072Z,18.33
2018-07-10T02:53:12.292Z,18.38
2018-07-10T02:53:43.514Z,18.38
2018-07-10T02:54:14.732Z,18.39
2018-07-10T02:54:45.935Z,18.40
2018-07-10T02:55:17.121Z,18.43
2018-07-10T02:55:48.349Z,18.44
2018-07-10T02:56:19.586Z,18.45
2018-07-10T02:56:50.877Z,18.46
2018-07-10T02:57:22.065Z,18.48
2018-07-10T02:57:53.249Z,18.47
2018-07-10T02:58:24.481Z,18.47
2018-07-10T02:58:56.906Z,18.47
2018-07-10T02:59:28.160Z,18.47
2018-07-10T02:59:59.344Z,18.48
2018-07-10T03:00:30.548Z,18.50
2018-07-10T03:01:01.725Z,18.51
2018-07-10T03:01:32.954Z,18.53
2018-07-10T03:02:04.198Z,18.56
2018-07-10T03:02:35.457Z,18.58
2018-07-10T03:03:06.704Z,18.58
2018-07-10T03:03:37.970Z,18.60
2018-07-10T03:04:09.215Z,18.60
2018-07-10T03:04:40.502Z,18.61
2018-07-10T03:05:11.709Z,18.60
2018-07-10T03:05:42.894Z,18.58
2018-07-10T03:06:14.082Z,18.57
2018-07-10T03:06:45.313Z,18.55
2018-07-10T03:07:16.904Z,18.55
2018-07-10T03:07:48.076Z,18.55
2018-07-10T03:08:19.248Z,18.56
2018-07-10T03:08:50.422Z,18.58
2018-07-10T03:09:21.596Z,18.61
2018-07-10T03:09:52.857Z,18.63
2018-07-10T03:10:24.043Z,18.64
2018-07-10T03:10:55.269Z,18.65
2018-07-10T03:11:26.497Z,18.64
2018-07-10T03:11:57.689Z,18.66
2018-07-10T03:12:28.864Z,18.65
2018-07-10T03:13:00.041Z,18.66
2018-07-10T03:13:31.236Z,18.66
2018-07-10T03:14:02.473Z,18.67
2018-07-10T03:14:33.669Z,18.70
2018-07-10T03:15:04.899Z,18.71
2018-07-10T03:15:36.077Z,18.74
2018-07-10T03:16:07.337Z,18.75
2018-07-10T03:16:38.594Z,18.78
2018-07-10T03:17:09.773Z,18.80
2018-07-10T03:17:40.955Z,18.82
2018-07-10T03:18:12.177Z,18.82
2018-07-10T03:18:43.433Z,18.83
2018-07-10T03:19:14.617Z,18.82
2018-07-10T03:19:45.792Z,18.82
2018-07-10T03:20:16.980Z,18.83
2018-07-10T03:20:48.153Z,18.83
2018-07-10T03:21:19.395Z,18.82
2018-07-10T03:21:50.631Z,18.81
2018-07-10T03:22:21.866Z,18.81
2018-07-10T03:22:53.109Z,18.78
2018-07-10T03:23:24.349Z,18.76
2018-07-10T03:23:55.578Z,18.75
2018-07-10T03:24:26.771Z,18.77
2018-07-10T03:24:58.553Z,18.78
2018-07-10T03:25:29.777Z,18.79
2018-07-10T03:26:01.049Z,18.78
2018-07-10T03:26:32.232Z,18.81
2018-07-10T03:27:03.440Z,18.82
2018-07-10T03:27:34.674Z,18.82
2018-07-10T03:28:05.909Z,18.81
2018-07-10T03:28:37.171Z,18.81
2018-07-10T03:29:08.425Z,18.87
2018-07-10T03:29:39.632Z,18.94
2018-07-10T03:30:10.876Z,19.08
2018-07-10T03:30:42.075Z,19.26
2018-07-10T03:31:13.353Z,19.43
2018-07-10T03:31:44.544Z,19.59
2018-07-10T03:32:15.776Z,19.75
2018-07-10T03:32:46.972Z,19.91
2018-07-10T03:33:18.159Z,20.10
2018-07-10T03:33:49.397Z,20.20
2018-07-10T03:34:20.666Z,20.54
2018-07-10T03:34:51.905Z,20.73
2018-07-10T03:35:23.173Z,20.91
2018-07-10T03:35:54.392Z,21.05
2018-07-10T03:36:25.662Z,21.22
2018-07-10T03:36:56.856Z,21.40
2018-07-10T03:37:28.052Z,21.57
2018-07-10T03:37:59.228Z,21.71
2018-07-10T03:38:30.465Z,21.75
2018-07-10T03:39:01.695Z,21.71
2018-07-10T03:39:32.957Z,21.57
2018-07-10T03:40:04.184Z,21.45
2018-07-10T03:40:35.377Z,21.36
2018-07-10T03:41:06.556Z,21.29
2018-07-10T03:41:37.788Z,21.25
2018-07-10T03:42:08.969Z,21.19
2018-07-10T03:42:40.148Z,21.19
2018-07-10T03:43:11.327Z,21.17
2018-07-10T03:43:42.515Z,21.08
2018-07-10T03:44:13.742Z,20.96
2018-07-10T03:44:44.932Z,20.84
2018-07-10T03:45:16.180Z,20.72
2018-07-10T03:45:47.388Z,20.59
2018-07-10T03:46:18.556Z,20.46
2018-07-10T03:46:49.797Z,20.30
2018-07-10T03:47:21.033Z,20.18
2018-07-10T03:47:52.232Z,20.09
2018-07-10T03:48:23.412Z,20.02
2018-07-10T03:48:54.593Z,19.99
2018-07-10T03:49:25.784Z,19.88
2018-07-10T03:49:56.973Z,19.74
2018-07-10T03:50:28.196Z,19.66
2018-07-10T03:50:59.372Z,19.59
2018-07-10T03:51:30.561Z,19.55
2018-07-10T03:52:04.546Z,19.50
2018-07-10T03:52:35.753Z,19.49
2018-07-10T03:53:07.551Z,19.46
2018-07-10T03:53:38.738Z,19.49
2018-07-10T03:54:09.973Z,19.51
2018-07-10T03:54:41.168Z,19.51
2018-07-10T03:55:12.346Z,19.55
2018-07-10T03:55:43.585Z,19.57
2018-07-10T03:56:14.777Z,19.60
2018-07-10T03:56:46.024Z,19.61
2018-07-10T03:57:17.261Z,19.64
2018-07-10T03:57:48.495Z,19.67
2018-07-10T03:58:19.680Z,19.71
2018-07-10T03:58:50.909Z,19.76
2018-07-10T03:59:22.100Z,19.75
2018-07-10T03:59:53.286Z,19.71
2018-07-10T04:00:24.481Z,19.69
2018-07-10T04:00:55.786Z,19.68
2018-07-10T04:01:27.044Z,19.70
2018-07-10T04:01:58.249Z,19.73
2018-07-10T04:02:30.181Z,19.75
2018-07-10T04:03:01.374Z,19.78
2018-07-10T04:03:32.630Z,19.83
2018-07-10T04:04:03.867Z,19.88
2018-07-10T04:04:35.057Z,19.92
2018-07-10T04:05:06.228Z,19.92
2018-07-10T04:05:37.457Z,19.96
2018-07-10T04:06:09.269Z,20.03
2018-07-10T04:06:40.512Z,20.10
2018-07-10T04:07:11.759Z,20.20
2018-07-10T04:07:43.064Z,20.27
2018-07-10T04:08:14.280Z,20.34
2018-07-10T04:08:45.456Z,20.49
2018-07-10T04:09:16.689Z,20.73
2018-07-10T04:09:47.925Z,21.11
2018-07-10T04:10:19.104Z,21.47
2018-07-10T04:10:50.386Z,21.87
2018-07-10T04:11:21.574Z,22.22
2018-07-10T04:11:52.781Z,22.54
2018-07-10T04:12:23.960Z,22.77
2018-07-10T04:12:55.181Z,22.90
2018-07-10T04:13:26.343Z,22.83
2018-07-10T04:13:57.520Z,22.74
2018-07-10T04:14:28.695Z,22.58
2018-07-10T04:14:59.940Z,22.46
2018-07-10T04:15:31.125Z,22.38
2018-07-10T04:16:02.323Z,22.28
2018-07-10T04:16:33.513Z,22.21
2018-07-10T04:17:04.716Z,22.11
2018-07-10T04:17:35.889Z,22.05
2018-07-10T04:18:07.100Z,21.98
2018-07-10T04:18:38.273Z,21.90
2018-07-10T04:19:09.493Z,21.82
2018-07-10T04:19:40.668Z,21.77
2018-07-10T04:20:11.876Z,21.75
2018-07-10T04:20:43.049Z,21.70
2018-07-10T04:21:14.224Z,21.71
2018-07-10T04:21:45.406Z,21.79
2018-07-10T04:22:16.591Z,21.87
2018-07-10T04:22:47.822Z,21.98
2018-07-10T04:23:19.003Z,22.08
2018-07-10T04:23:50.170Z,22.14
2018-07-10T04:24:21.465Z,22.20
2018-07-10T04:24:52.688Z,22.30
2018-07-10T04:25:23.865Z,22.44
2018-07-10T04:25:55.052Z,22.59
2018-07-10T04:26:26.232Z,22.79
2018-07-10T04:26:57.421Z,23.09
2018-07-10T04:27:28.592Z,23.35
2018-07-10T04:27:59.809Z,23.56
2018-07-10T04:28:30.996Z,23.66
2018-07-10T04:29:02.255Z,23.74
2018-07-10T04:29:33.537Z,23.76
2018-07-10T04:30:04.758Z,23.70
2018-07-10T04:30:35.936Z,23.64
2018-07-10T04:31:07.107Z,23.62
2018-07-10T04:31:38.345Z,23.64
2018-07-10T04:32:09.578Z,23.77
2018-07-10T04:32:40.849Z,23.89
2018-07-10T04:33:12.073Z,24.06
2018-07-10T04:33:43.297Z,24.39
2018-07-10T04:34:14.520Z,24.70
2018-07-10T04:34:45.688Z,24.92
2018-07-10T04:35:16.944Z,25.05
2018-07-10T04:35:48.208Z,25.02
2018-07-10T04:36:19.382Z,24.90
2018-07-10T04:36:50.554Z,24.82
2018-07-10T04:37:21.724Z,24.77
2018-07-10T04:37:52.897Z,24.62
2018-07-10T04:38:24.074Z,24.54
2018-07-10T04:38:55.259Z,24.58
2018-07-10T04:39:26.447Z,24.65
2018-07-10T04:39:57.659Z,24.84
2018-07-10T04:40:28.873Z,25.05
2018-07-10T04:41:00.089Z,25.27
2018-07-10T04:41:31.260Z,25.48
2018-07-10T04:42:02.489Z,25.82
2018-07-10T04:42:33.676Z,26.09
2018-07-10T04:43:04.898Z,26.33
2018-07-10T04:43:36.074Z,26.38
2018-07-10T04:44:07.302Z,26.46
2018-07-10T04:44:38.488Z,26.53
2018-07-10T04:45:09.664Z,26.41
2018-07-10T04:45:40.873Z,26.30
2018-07-10T04:46:12.062Z,26.14
2018-07-10T04:46:43.290Z,26.05
2018-07-10T04:47:14.581Z,25.68
2018-07-10T04:47:45.809Z,25.49
2018-07-10T04:48:16.988Z,25.20
2018-07-10T04:48:48.158Z,24.86
2018-07-10T04:49:19.456Z,24.70
2018-07-10T04:49:50.623Z,24.56
2018-07-10T04:50:21.800Z,24.29
2018-07-10T04:50:53.023Z,24.12
2018-07-10T04:51:24.280Z,24.06
2018-07-10T04:51:55.533Z,23.93
2018-07-10T04:52:26.714Z,23.86
2018-07-10T04:52:57.881Z,23.70
2018-07-10T04:53:29.054Z,23.54
2018-07-10T04:54:00.225Z,23.54
2018-07-10T04:54:31.407Z,23.50
2018-07-10T04:55:02.633Z,23.40
2018-07-10T04:55:33.894Z,23.17
2018-07-10T04:56:05.113Z,22.94
2018-07-10T04:56:36.299Z,22.80
2018-07-10T04:57:07.460Z,22.69
2018-07-10T04:57:38.734Z,22.67
2018-07-10T04:58:09.900Z,22.70
2018-07-10T04:58:41.117Z,22.69
2018-07-10T04:59:12.349Z,22.62
2018-07-10T04:59:43.525Z,22.67
2018-07-10T05:00:14.697Z,22.66
2018-07-10T05:00:45.873Z,22.76
2018-07-10T05:01:17.085Z,22.99
2018-07-10T05:01:48.375Z,23.22
2018-07-10T05:02:19.567Z,23.48
2018-07-10T05:02:50.788Z,23.79
2018-07-10T05:03:22.009Z,24.19
2018-07-10T05:03:53.254Z,24.50
2018-07-10T05:04:27.232Z,24.70
2018-07-10T05:04:58.424Z,24.92
2018-07-10T05:05:29.641Z,25.10
2018-07-10T05:06:00.857Z,25.14
2018-07-10T05:06:32.033Z,25.27
2018-07-10T05:07:03.218Z,25.55
2018-07-10T05:07:34.446Z,25.38
2018-07-10T05:08:05.633Z,25.48
2018-07-10T05:08:36.852Z,25.70
2018-07-10T05:09:08.034Z,25.98
2018-07-10T05:09:39.246Z,26.33
2018-07-10T05:10:10.456Z,26.46
2018-07-10T05:10:41.634Z,26.79
2018-07-10T05:11:12.900Z,26.84
2018-07-10T05:11:44.131Z,26.82
2018-07-10T05:12:15.657Z,27.03
2018-07-10T05:12:46.898Z,26.92
2018-07-10T05:13:18.075Z,27.06
2018-07-10T05:13:49.254Z,26.92
2018-07-10T05:14:20.482Z,27.16
2018-07-10T05:14:51.700Z,27.41
2018-07-10T05:15:22.887Z,27.57
2018-07-10T05:15:54.063Z,27.60
2018-07-10T05:16:25.253Z,27.83
2018-07-10T05:16:56.425Z,27.96
2018-07-10T05:17:27.684Z,27.91
2018-07-10T05:17:58.869Z,27.88
2018-07-10T05:18:30.098Z,27.98
2018-07-10T05:19:01.286Z,27.89
2018-07-10T05:19:32.548Z,26.45
2018-07-10T05:20:03.745Z,28.07
2018-07-10T05:20:34.978Z,28.16
2018-07-10T05:21:06.221Z,28.02
2018-07-10T05:21:37.417Z,28.15
2018-07-10T05:22:08.620Z,28.27
2018-07-10T05:22:39.850Z,28.45
2018-07-10T05:23:11.081Z,28.69
2018-07-10T05:23:42.341Z,28.80
2018-07-10T05:24:13.516Z,28.79
2018-07-10T05:24:44.702Z,28.82
2018-07-10T05:25:16.888Z,28.75
2018-07-10T05:25:48.068Z,28.86
2018-07-10T05:26:19.308Z,28.78
2018-07-10T05:26:50.531Z,28.59
2018-07-10T05:27:21.721Z,28.60
2018-07-10T05:27:52.913Z,28.50
2018-07-10T05:28:24.093Z,28.56
2018-07-10T05:28:55.347Z,28.51
2018-07-10T05:29:26.613Z,28.53
2018-07-10T05:29:57.801Z,28.61
2018-07-10T05:30:28.982Z,28.65
2018-07-10T05:31:00.168Z,28.69
2018-07-10T05:31:31.400Z,28.44
2018-07-10T05:32:02.616Z,28.23
2018-07-10T05:32:33.846Z,28.22
2018-07-10T05:33:05.038Z,28.34
2018-07-10T05:33:36.227Z,28.45
2018-07-10T05:34:07.466Z,28.22
2018-07-10T05:34:38.721Z,28.24
2018-07-10T05:35:09.905Z,28.00
2018-07-10T05:35:41.669Z,27.95
2018-07-10T05:36:13.676Z,28.16
2018-07-10T05:36:44.907Z,28.30
2018-07-10T05:37:16.167Z,28.24
2018-07-10T05:37:47.311Z,28.28
2018-07-10T05:38:18.634Z,28.21
2018-07-10T05:38:49.904Z,28.19
2018-07-10T05:39:21.162Z,28.11
2018-07-10T05:39:52.366Z,27.74
2018-07-10T05:40:23.547Z,27.48
2018-07-10T05:40:54.719Z,27.28
2018-07-10T05:41:25.896Z,27.14
2018-07-10T05:41:57.185Z,27.07
2018-07-10T05:42:28.597Z,26.92
2018-07-10T05:42:59.847Z,26.87
2018-07-10T05:43:31.052Z,26.88
2018-07-10T05:44:02.241Z,26.84
2018-07-10T05:44:33.416Z,26.72
2018-07-10T05:45:04.638Z,26.62
2018-07-10T05:45:35.916Z,26.66
2018-07-10T05:46:07.141Z,26.53
2018-07-10T05:46:38.376Z,26.50
2018-07-10T05:47:09.589Z,26.40
2018-07-10T05:47:40.876Z,26.22
2018-07-10T05:48:12.124Z,26.13
2018-07-10T05:48:43.390Z,25.95
2018-07-10T05:49:14.616Z,26.15
2018-07-10T05:49:45.880Z,26.30
2018-07-10T05:50:17.085Z,26.38
2018-07-10T05:50:48.888Z,26.49
2018-07-10T05:51:20.956Z,26.58
2018-07-10T05:51:52.305Z,26.38
2018-07-10T05:52:23.497Z,26.50
2018-07-10T05:52:54.799Z,26.40
2018-07-10T05:53:25.979Z,26.32
2018-07-10T05:53:57.244Z,26.19
2018-07-10T05:54:28.465Z,26.03
2018-07-10T05:55:00.295Z,25.80
2018-07-10T05:55:31.529Z,25.80
2018-07-10T05:56:02.778Z,25.78
2018-07-10T05:56:34.040Z,25.69
2018-07-10T05:57:05.276Z,25.57
2018-07-10T05:57:36.523Z,25.53
2018-07-10T05:58:08.706Z,25.52
2018-07-10T05:58:39.975Z,25.57
2018-07-10T05:59:11.852Z,25.55
2018-07-10T05:59:43.108Z,25.62
2018-07-10T06:00:14.401Z,25.55
2018-07-10T06:00:45.608Z,25.45
2018-07-10T06:01:16.801Z,25.36
2018-07-10T06:01:48.026Z,25.50
2018-07-10T06:02:19.242Z,25.59
2018-07-10T06:02:50.477Z,25.67
2018-07-10T06:03:21.736Z,25.74
2018-07-10T06:03:52.932Z,25.77
2018-07-10T06:04:24.108Z,25.80
2018-07-10T06:04:55.294Z,25.79
2018-07-10T06:05:26.472Z,25.67
2018-07-10T06:05:57.678Z,25.56
2018-07-10T06:06:28.926Z,25.52
2018-07-10T06:07:00.157Z,25.56
2018-07-10T06:07:31.390Z,25.63
2018-07-10T06:08:02.581Z,25.53
2018-07-10T06:08:33.821Z,25.74
2018-07-10T06:09:05.054Z,25.60
2018-07-10T06:09:36.288Z,25.71
2018-07-10T06:10:07.504Z,25.70
2018-07-10T06:10:38.694Z,25.81
2018-07-10T06:11:09.913Z,25.89
2018-07-10T06:11:41.186Z,25.91
2018-07-10T06:12:13.069Z,25.89
2018-07-10T06:12:44.274Z,25.85
2018-07-10T06:13:15.510Z,25.88
2018-07-10T06:13:46.704Z,25.90
2018-07-10T06:14:17.880Z,25.81
2018-07-10T06:14:49.110Z,25.87
2018-07-10T06:15:20.308Z,25.93
2018-07-10T06:15:51.497Z,25.84
2018-07-10T06:16:22.779Z,25.87
2018-07-10T06:16:54.045Z,25.83
2018-07-10T06:17:25.241Z,25.91
2018-07-10T06:17:56.420Z,25.97
2018-07-10T06:18:27.627Z,26.04
2018-07-10T06:18:58.809Z,26.05
2018-07-10T06:19:30.139Z,26.00
2018-07-10T06:20:01.386Z,25.83
2018-07-10T06:20:32.575Z,25.71
2018-07-10T06:21:04.784Z,25.79
2018-07-10T06:21:36.046Z,25.84
2018-07-10T06:22:07.272Z,25.64
2018-07-10T06:22:38.506Z,25.46
2018-07-10T06:23:09.689Z,25.42
2018-07-10T06:23:40.867Z,25.32
2018-07-10T06:24:12.052Z,25.31
2018-07-10T06:24:43.236Z,24.61
2018-07-10T06:25:14.486Z,25.35
2018-07-10T06:25:45.710Z,25.30
2018-07-10T06:26:16.895Z,25.22
2018-07-10T06:26:48.162Z,25.18
2018-07-10T06:27:19.354Z,25.17
2018-07-10T06:27:50.533Z,25.25
2018-07-10T06:28:21.752Z,25.37
2018-07-10T06:28:52.928Z,25.35
2018-07-10T06:29:24.118Z,25.43
2018-07-10T06:29:55.313Z,25.43
2018-07-10T06:30:26.612Z,25.42
2018-07-10T06:30:57.782Z,25.50
2018-07-10T06:31:28.998Z,25.50
2018-07-10T06:32:00.230Z,25.49
2018-07-10T06:32:31.491Z,25.31
2018-07-10T06:33:02.680Z,25.33
2018-07-10T06:33:33.904Z,25.39
2018-07-10T06:34:05.093Z,25.22
2018-07-10T06:34:36.268Z,24.98
2018-07-10T06:35:07.485Z,24.76
2018-07-10T06:35:39.759Z,24.70
2018-07-10T06:36:10.998Z,24.67
2018-07-10T06:36:42.287Z,24.54
2018-07-10T06:37:13.489Z,24.53
2018-07-10T06:37:44.669Z,24.45
2018-07-10T06:38:15.848Z,24.52
2018-07-10T06:38:47.592Z,24.65
2018-07-10T06:39:18.823Z,24.71
2018-07-10T06:39:50.080Z,24.76
2018-07-10T06:40:21.257Z,24.79
2018-07-10T06:40:52.437Z,24.97
2018-07-10T06:41:23.725Z,25.00
2018-07-10T06:41:54.928Z,25.00
2018-07-10T06:42:26.113Z,25.01